Time;durP1;ratioP1;P1;durP2;ratioP2;P2;SDS_P1;SDS_P2;PMS_P1;PMS_P2;Temp;Humidity;BMP_temperature;BMP_pressure;BME280_temperature;BME280_humidity;BME280_pressure;Samples;Min_cycle;Max_cycle;Signal;HPM_P1;HPM_P2
2023/03/14 00:02:17;;;;;;;1.05;0.80;;;;;;;-143.04;100.00;61139.28;5028485;28;20042;-86
2023/03/14 00:04:43;;;;;;;1.33;0.70;;;;;;;-143.04;100.00;61139.28;5030347;28;20486;-87
2023/03/14 00:07:31;;;;;;;1.52;1.00;;;;;;;-143.04;100.00;61139.28;5030613;28;20111;-87
2023/03/14 00:09:57;;;;;;;2.58;0.82;;;;;;;-143.04;100.00;61139.28;5019445;28;20065;-87
2023/03/14 00:12:25;;;;;;;1.00;1.00;;;;;;;-143.04;100.00;61139.28;5025710;28;20072;-86
2023/03/14 00:14:51;;;;;;;1.60;0.80;;;;;;;-143.04;100.00;61139.28;5040230;28;20029;-86
2023/03/14 00:17:17;;;;;;;1.30;0.90;;;;;;;-143.04;100.00;61139.28;5031816;28;20064;-86
2023/03/14 00:19:43;;;;;;;1.30;0.80;;;;;;;-143.04;100.00;61139.28;5030215;28;20504;-87
2023/03/14 00:22:09;;;;;;;0.85;0.60;;;;;;;-143.04;100.00;61139.28;5030809;28;20068;-87
2023/03/14 00:24:35;;;;;;;1.52;0.90;;;;;;;-143.04;100.00;61139.28;5031401;28;20022;-87
2023/03/14 00:27:01;;;;;;;1.75;0.95;;;;;;;-143.04;100.00;61139.28;5030663;28;20053;-87
2023/03/14 00:29:27;;;;;;;0.70;0.47;;;;;;;-143.04;100.00;61139.28;5029930;28;20508;-87
2023/03/14 00:31:53;;;;;;;1.35;0.80;;;;;;;-143.04;100.00;61139.28;5030336;28;20064;-87
2023/03/14 00:34:19;;;;;;;1.70;0.70;;;;;;;-143.04;100.00;61139.28;5026068;28;20033;-86
2023/03/14 00:36:45;;;;;;;0.95;0.60;;;;;;;-143.04;100.00;61139.28;5026940;28;20045;-87
2023/03/14 00:39:11;;;;;;;0.40;0.40;;;;;;;-143.04;100.00;61139.28;5030951;28;20389;-86
2023/03/14 00:41:37;;;;;;;0.95;0.50;;;;;;;-143.04;100.00;61139.28;5028512;28;20076;-86
2023/03/14 00:44:03;;;;;;;0.60;0.60;;;;;;;-143.04;100.00;61139.28;5030850;28;20060;-87
2023/03/14 00:46:29;;;;;;;0.73;0.60;;;;;;;-143.04;100.00;61139.28;5026259;28;20851;-86
2023/03/14 00:48:55;;;;;;;1.55;0.57;;;;;;;-143.04;100.00;61139.28;5030843;28;20460;-86
2023/03/14 00:51:21;;;;;;;0.52;0.52;;;;;;;-143.04;100.00;61139.28;5030265;28;20052;-87
2023/03/14 00:53:47;;;;;;;1.10;0.43;;;;;;;-143.04;100.00;61139.28;5023092;28;20034;-86
2023/03/14 00:56:14;;;;;;;1.48;0.50;;;;;;;-143.04;100.00;61139.28;5039311;28;20436;-87
2023/03/14 00:58:40;;;;;;;2.15;0.60;;;;;;;-143.04;100.00;61139.28;5024816;28;20029;-86
2023/03/14 01:01:08;;;;;;;0.60;0.60;;;;;;;-143.04;100.00;61139.28;5030923;28;20072;-87
2023/03/14 01:03:34;;;;;;;0.70;0.60;;;;;;;-143.04;100.00;61139.28;5031234;28;20057;-86
2023/03/14 01:06:15;;;;;;;0.85;0.65;;;;;;;-143.04;100.00;61139.28;5029366;28;20073;-87
2023/03/14 01:08:42;;;;;;;0.57;0.57;;;;;;;-143.04;100.00;61139.28;5026749;28;20555;-86
2023/03/14 01:11:25;;;;;;;0.93;0.60;;;;;;;-143.04;100.00;61139.28;5034148;28;20042;-87
2023/03/14 01:13:51;;;;;;;0.50;0.50;;;;;;;-143.04;100.00;61139.28;5033460;28;20057;-87
2023/03/14 01:16:20;;;;;;;0.65;0.30;;;;;;;-143.04;100.00;61139.28;5033581;28;20045;-87
2023/03/14 01:18:48;;;;;;;0.68;0.50;;;;;;;-143.04;100.00;61139.28;5031244;28;20029;-87
2023/03/14 01:21:22;;;;;;;0.50;0.50;;;;;;;-143.04;100.00;61139.28;5028573;28;20072;-87
2023/03/14 01:23:50;;;;;;;0.30;0.30;;;;;;;-143.04;100.00;61139.28;5019201;28;20049;-87
2023/03/14 01:26:20;;;;;;;0.38;0.38;;;;;;;-143.04;100.00;61139.28;5023410;28;20085;-87
2023/03/14 01:28:49;;;;;;;0.40;0.40;;;;;;;-143.04;100.00;61139.28;5027135;28;20629;-86
2023/03/14 01:31:15;;;;;;;0.40;0.35;;;;;;;-143.04;100.00;61139.28;5023003;28;20037;-86
2023/03/14 01:33:46;;;;;;;0.55;0.30;;;;;;;-143.04;100.00;61139.28;5031206;28;20511;-86
2023/03/14 01:36:13;;;;;;;0.82;0.30;;;;;;;-143.04;100.00;61139.28;5028724;28;20038;-86
2023/03/14 01:38:40;;;;;;;0.55;0.40;;;;;;;-143.04;100.00;61139.28;5025195;28;20056;-86
2023/03/14 01:41:14;;;;;;;0.47;0.40;;;;;;;-143.04;100.00;61139.28;5032639;28;20081;-87
2023/03/14 01:43:40;;;;;;;0.40;0.40;;;;;;;-143.04;100.00;61139.28;5033093;28;20041;-86
2023/03/14 01:46:08;;;;;;;0.28;0.28;;;;;;;-143.04;100.00;61139.28;5026314;28;20088;-87
2023/03/14 01:48:59;;;;;;;0.77;0.30;;;;;;;-143.04;100.00;61139.28;5029553;28;20049;-86
2023/03/14 01:51:54;;;;;;;0.30;0.30;;;;;;;-143.04;100.00;61139.28;5032011;28;20524;-86
2023/03/14 01:54:42;;;;;;;1.17;0.43;;;;;;;-143.04;100.00;61139.28;5012486;28;20074;-85
2023/03/14 01:57:22;;;;;;;0.50;0.40;;;;;;;-143.04;100.00;61139.28;5024485;28;20037;-86
2023/03/14 02:00:14;;;;;;;0.47;0.35;;;;;;;-143.04;100.00;61139.28;5023534;28;20421;-86
2023/03/14 02:02:45;;;;;;;0.40;0.40;;;;;;;-143.04;100.00;61139.28;5021135;28;20390;-86
2023/03/14 02:05:17;;;;;;;0.30;0.30;;;;;;;-143.04;100.00;61139.28;5025032;28;20403;-86
2023/03/14 02:08:41;;;;;;;0.30;0.30;;;;;;;-143.04;100.00;61139.28;5029679;28;20037;-86
2023/03/14 02:11:08;;;;;;;1.30;0.40;;;;;;;-143.04;100.00;61139.28;5030253;28;20047;-86
2023/03/14 02:13:34;;;;;;;0.50;0.50;;;;;;;-143.04;100.00;61139.28;5031384;28;20068;-85
2023/03/14 02:16:00;;;;;;;0.40;0.40;;;;;;;-143.04;100.00;61139.28;5028853;28;20080;-85
2023/03/14 02:18:27;;;;;;;0.95;0.50;;;;;;;-143.04;100.00;61139.28;5031723;28;20068;-86
2023/03/14 02:21:17;;;;;;;0.40;0.40;;;;;;;-143.04;100.00;61139.28;5031887;28;20072;-87
2023/03/14 02:24:43;;;;;;;0.50;0.50;;;;;;;-143.04;100.00;61139.28;5022335;28;20068;-85
2023/03/14 02:27:12;;;;;;;1.40;0.50;;;;;;;-143.04;100.00;61139.28;4969919;28;20079;-85
2023/03/14 02:29:57;;;;;;;1.27;0.55;;;;;;;-143.04;100.00;61139.28;5026434;28;20420;-86
2023/03/14 02:32:26;;;;;;;0.55;0.55;;;;;;;-143.04;100.00;61139.28;5028536;28;20041;-86
2023/03/14 02:34:57;;;;;;;0.40;0.40;;;;;;;-143.04;100.00;61139.28;5030375;28;20061;-85
2023/03/14 02:37:32;;;;;;;;;;;;;;;-143.04;100.00;61139.28;5027425;28;20053;-85
2023/03/14 02:39:58;;;;;;;0.40;0.40;;;;;;;-143.04;100.00;61139.28;5020692;28;20393;-86
2023/03/14 02:42:25;;;;;;;0.50;0.50;;;;;;;-143.04;100.00;61139.28;5029753;28;20037;-86
2023/03/14 02:45:20;;;;;;;1.17;0.50;;;;;;;-143.04;100.00;61139.28;5022313;28;20069;-86
2023/03/14 02:47:56;;;;;;;0.85;0.60;;;;;;;-143.04;100.00;61139.28;5031000;28;20037;-86
2023/03/14 02:50:30;;;;;;;0.60;0.60;;;;;;;-143.04;100.00;61139.28;5030712;28;20041;-86
2023/03/14 02:52:56;;;;;;;0.50;0.50;;;;;;;-143.04;100.00;61139.28;5026474;28;20037;-86
2023/03/14 02:55:25;;;;;;;0.50;0.50;;;;;;;-143.04;100.00;61139.28;5025168;28;20068;-86
2023/03/14 02:57:51;;;;;;;0.77;0.68;;;;;;;-143.04;100.00;61139.28;5029724;28;20068;-85
2023/03/14 03:00:19;;;;;;;0.70;0.70;;;;;;;-143.04;100.00;61139.28;5022535;28;20069;-85
2023/03/14 03:02:46;;;;;;;0.43;0.43;;;;;;;-143.04;100.00;61139.28;5027899;28;20061;-86
2023/03/14 03:05:12;;;;;;;0.50;0.47;;;;;;;-143.04;100.00;61139.28;5029623;28;20060;-87
2023/03/14 03:07:38;;;;;;;1.55;0.60;;;;;;;-143.04;100.00;61139.28;5020028;28;20092;-86
2023/03/14 03:10:05;;;;;;;1.15;0.50;;;;;;;-143.04;100.00;61139.28;5022832;28;20068;-86
2023/03/14 03:12:31;;;;;;;1.33;0.50;;;;;;;-143.04;100.00;61139.28;5027817;28;20059;-86
2023/03/14 03:14:58;;;;;;;0.90;0.60;;;;;;;-143.04;100.00;61139.28;5028949;28;20099;-85
2023/03/14 03:17:24;;;;;;;0.40;0.40;;;;;;;-143.04;100.00;61139.28;5030331;28;20065;-86
2023/03/14 03:19:50;;;;;;;1.27;0.50;;;;;;;-143.04;100.00;61139.28;5024518;28;20057;-86
2023/03/14 03:22:16;;;;;;;0.60;0.60;;;;;;;-143.04;100.00;61139.28;5027266;28;20060;-85
2023/03/14 03:24:44;;;;;;;0.77;0.55;;;;;;;-143.04;100.00;61139.28;5026498;28;20049;-86
2023/03/14 03:27:10;;;;;;;0.40;0.40;;;;;;;-143.04;100.00;61139.28;5015468;28;20651;-86
2023/03/14 03:29:36;;;;;;;1.67;0.50;;;;;;;-143.04;100.00;61139.28;5028721;28;20061;-85
2023/03/14 03:32:03;;;;;;;1.88;0.60;;;;;;;-143.04;100.00;61139.28;5024125;28;20076;-86
2023/03/14 03:34:29;;;;;;;0.40;0.40;;;;;;;-143.04;100.00;61139.28;5034768;28;20069;-85
2023/03/14 03:36:58;;;;;;;0.47;0.45;;;;;;;-143.04;100.00;61139.28;5026053;28;20060;-86
2023/03/14 03:39:24;;;;;;;0.80;0.60;;;;;;;-143.04;100.00;61139.28;5055806;28;20056;-86
2023/03/14 03:41:51;;;;;;;0.32;0.32;;;;;;;-143.04;100.00;61139.28;5023376;28;20037;-86
2023/03/14 03:44:17;;;;;;;0.43;0.43;;;;;;;-143.04;100.00;61139.28;5027038;28;20067;-85
2023/03/14 03:46:43;;;;;;;0.52;0.52;;;;;;;-143.04;100.00;61139.28;5026122;28;20072;-86
2023/03/14 03:49:09;;;;;;;0.55;0.55;;;;;;;-143.04;100.00;61139.28;5024224;28;20436;-86
2023/03/14 03:51:36;;;;;;;0.60;0.50;;;;;;;-143.04;100.00;61139.28;5028227;28;20500;-85
2023/03/14 03:54:02;;;;;;;1.00;0.65;;;;;;;-143.04;100.00;61139.28;5029745;28;20060;-86
2023/03/14 03:56:31;;;;;;;2.33;0.70;;;;;;;-143.04;100.00;61139.28;5026013;28;20527;-86
2023/03/14 03:58:57;;;;;;;0.68;0.50;;;;;;;-143.04;100.00;61139.28;5019933;28;20898;-86
2023/03/14 04:01:24;;;;;;;0.55;0.50;;;;;;;-143.04;100.00;61139.28;5029880;28;20720;-86
2023/03/14 04:03:50;;;;;;;0.40;0.40;;;;;;;-143.04;100.00;61139.28;5020292;28;20068;-85
2023/03/14 04:06:16;;;;;;;0.40;0.40;;;;;;;-143.04;100.00;61139.28;5029519;28;20060;-86
2023/03/14 04:08:43;;;;;;;1.00;0.50;;;;;;;-143.04;100.00;61139.28;5025616;28;20045;-86
2023/03/14 04:11:11;;;;;;;0.43;0.43;;;;;;;-143.04;100.00;61139.28;5026160;28;20116;-85
2023/03/14 04:13:37;;;;;;;0.60;0.60;;;;;;;-143.04;100.00;61139.28;5023324;28;20103;-85
2023/03/14 04:16:03;;;;;;;0.60;0.60;;;;;;;-143.04;100.00;61139.28;5030805;28;20062;-86
2023/03/14 04:18:30;;;;;;;1.45;0.70;;;;;;;-143.04;100.00;61139.28;5009654;28;20473;-85
2023/03/14 04:20:57;;;;;;;0.52;0.52;;;;;;;-143.04;100.00;61139.28;5024365;28;20068;-85
2023/03/14 04:23:25;;;;;;;0.50;0.50;;;;;;;-143.04;100.00;61139.28;5033721;28;20481;-85
2023/03/14 04:25:53;;;;;;;0.47;0.47;;;;;;;-143.04;100.00;61139.28;5027878;28;20632;-85
2023/03/14 04:28:19;;;;;;;2.10;0.60;;;;;;;-143.04;100.00;61139.28;5019036;28;20041;-86
2023/03/14 04:30:46;;;;;;;0.68;0.68;;;;;;;-143.04;100.00;61139.28;5025602;28;20064;-85
2023/03/14 04:33:16;;;;;;;0.50;0.50;;;;;;;-143.04;100.00;61139.28;5030080;28;20065;-85
2023/03/14 04:35:44;;;;;;;0.50;0.50;;;;;;;-143.04;100.00;61139.28;5027462;28;20073;-86
2023/03/14 04:38:11;;;;;;;0.70;0.70;;;;;;;-143.04;100.00;61139.28;5030138;28;20061;-85
2023/03/14 04:40:41;;;;;;;1.00;0.60;;;;;;;-143.04;100.00;61139.28;5032369;28;20481;-86
2023/03/14 04:43:10;;;;;;;0.40;0.40;;;;;;;-143.04;100.00;61139.28;5025981;28;20073;-85
2023/03/14 04:45:37;;;;;;;0.57;0.57;;;;;;;-143.04;100.00;61139.28;5033074;28;20053;-85
2023/03/14 04:48:03;;;;;;;1.10;0.60;;;;;;;-143.04;100.00;61139.28;5025301;28;20065;-86
2023/03/14 04:50:30;;;;;;;0.88;0.60;;;;;;;-143.04;100.00;61139.28;5026514;28;20107;-85
2023/03/14 04:52:56;;;;;;;0.63;0.47;;;;;;;-143.04;100.00;61139.28;5022908;28;20068;-86
2023/03/14 04:55:22;;;;;;;1.05;0.60;;;;;;;-143.04;100.00;61139.28;5021443;28;20057;-86
2023/03/14 04:57:48;;;;;;;0.85;0.60;;;;;;;-143.04;100.00;61139.28;5030823;28;20087;-86
2023/03/14 05:00:17;;;;;;;0.70;0.57;;;;;;;-143.04;100.00;61139.28;5032872;28;20778;-86
2023/03/14 05:02:44;;;;;;;2.13;0.60;;;;;;;-143.04;100.00;61139.28;5030490;28;20064;-86
2023/03/14 05:05:11;;;;;;;1.20;0.50;;;;;;;-143.04;100.00;61139.28;5041546;28;20073;-86
2023/03/14 05:07:37;;;;;;;0.90;0.60;;;;;;;-143.04;100.00;61139.28;5024984;28;20064;-85
2023/03/14 05:10:03;;;;;;;1.13;0.60;;;;;;;-143.04;100.00;61139.28;5021070;28;20062;-85
2023/03/14 05:12:30;;;;;;;0.70;0.57;;;;;;;-143.04;100.00;61139.28;5025459;28;20072;-86
2023/03/14 05:14:56;;;;;;;0.40;0.40;;;;;;;-143.04;100.00;61139.28;5031271;28;20072;-85
2023/03/14 05:17:22;;;;;;;1.17;0.35;;;;;;;-143.04;100.00;61139.28;5030188;28;20481;-85
2023/03/14 05:19:48;;;;;;;0.50;0.50;;;;;;;-143.04;100.00;61139.28;5028669;28;20073;-86
2023/03/14 05:22:15;;;;;;;0.60;0.60;;;;;;;-143.04;100.00;61139.28;5047109;28;20072;-85
2023/03/14 05:24:41;;;;;;;0.85;0.80;;;;;;;-143.04;100.00;61139.28;5024690;28;20034;-86
2023/03/14 05:27:07;;;;;;;1.42;0.70;;;;;;;-143.04;100.00;61139.28;5032355;28;20088;-86
2023/03/14 05:29:33;;;;;;;0.50;0.50;;;;;;;-143.04;100.00;61139.28;5032012;28;20061;-86
2023/03/14 05:32:00;;;;;;;0.50;0.50;;;;;;;-143.04;100.00;61139.28;5025021;28;20061;-85
2023/03/14 05:34:26;;;;;;;0.50;0.50;;;;;;;-143.04;100.00;61139.28;5045181;28;20077;-86
2023/03/14 05:36:52;;;;;;;1.40;0.60;;;;;;;-143.04;100.00;61139.28;5030522;28;20052;-85
2023/03/14 05:39:19;;;;;;;0.98;0.63;;;;;;;-143.04;100.00;61139.28;5027392;28;20127;-86
2023/03/14 05:41:45;;;;;;;0.90;0.70;;;;;;;-143.04;100.00;61139.28;5046111;28;20065;-87
2023/03/14 05:44:11;;;;;;;0.57;0.50;;;;;;;-143.04;100.00;61139.28;5030094;28;20485;-86
2023/03/14 05:47:02;;;;;;;3.55;1.55;;;;;;;-143.04;100.00;61139.28;5029420;28;20058;-86
2023/03/14 05:51:29;;;;;;;1.13;1.00;;;;;;;-143.04;100.00;61139.28;5025231;28;20747;-85
2023/03/14 05:54:07;;;;;;;2.25;1.20;;;;;;;-143.04;100.00;61139.28;5028447;28;20072;-85
2023/03/14 05:56:33;;;;;;;1.10;0.77;;;;;;;-143.04;100.00;61139.28;5016997;28;20419;-85
2023/03/14 05:59:02;;;;;;;0.98;0.80;;;;;;;-143.04;100.00;61139.28;5026205;28;20037;-85
2023/03/14 06:01:28;;;;;;;1.67;1.40;;;;;;;-143.04;100.00;61139.28;5028577;28;20072;-85
2023/03/14 06:03:54;;;;;;;1.60;1.10;;;;;;;-143.04;100.00;61139.28;5034861;28;20073;-84
2023/03/14 06:06:21;;;;;;;4.28;1.17;;;;;;;-143.04;100.00;61139.28;5027902;28;20057;-85
2023/03/14 06:08:47;;;;;;;2.45;1.40;;;;;;;-143.04;100.00;61139.28;5022665;28;20068;-85
2023/03/14 06:11:13;;;;;;;1.30;1.00;;;;;;;-143.04;100.00;61139.28;5027533;28;20038;-85
2023/03/14 06:13:39;;;;;;;1.77;1.40;;;;;;;-143.04;100.00;61139.28;5026297;28;20045;-85
2023/03/14 06:16:06;;;;;;;2.17;1.30;;;;;;;-143.04;100.00;61139.28;5028311;28;20073;-85
2023/03/14 06:18:32;;;;;;;2.17;1.00;;;;;;;-143.04;100.00;61139.28;5024686;28;20434;-85
2023/03/14 06:20:59;;;;;;;2.15;1.20;;;;;;;-143.04;100.00;61139.28;5028636;28;20072;-85
2023/03/14 06:23:25;;;;;;;1.58;1.08;;;;;;;-143.04;100.00;61139.28;5024658;28;20068;-85
2023/03/14 06:25:52;;;;;;;0.80;0.80;;;;;;;-143.04;100.00;61139.28;5025604;28;20069;-86
2023/03/14 06:28:18;;;;;;;1.50;1.15;;;;;;;-143.04;100.00;61139.28;5027874;28;20442;-85
2023/03/14 06:30:45;;;;;;;2.13;1.10;;;;;;;-143.04;100.00;61139.28;5029737;28;20068;-85
2023/03/14 06:33:11;;;;;;;0.80;0.80;;;;;;;-143.04;100.00;61139.28;5025697;28;20068;-85
2023/03/14 06:35:37;;;;;;;0.85;0.80;;;;;;;-143.04;100.00;61139.28;5025548;28;20095;-84
2023/03/14 06:38:03;;;;;;;0.85;0.75;;;;;;;-143.04;100.00;61139.28;5027911;28;20500;-85
2023/03/14 06:40:30;;;;;;;1.40;0.90;;;;;;;-143.04;100.00;61139.28;5029914;28;20056;-85
2023/03/14 06:42:56;;;;;;;1.60;0.80;;;;;;;-143.04;100.00;61139.28;5030417;28;20449;-85
2023/03/14 06:45:23;;;;;;;1.98;0.82;;;;;;;-143.04;100.00;61139.28;5024279;28;20057;-84
2023/03/14 06:47:49;;;;;;;1.10;0.82;;;;;;;-143.04;100.00;61139.28;5029497;28;20068;-86
2023/03/14 06:50:16;;;;;;;1.33;0.88;;;;;;;-143.04;100.00;61139.28;5027841;28;20042;-86
2023/03/14 06:52:47;;;;;;;0.95;0.85;;;;;;;-143.04;100.00;61139.28;5021839;28;20060;-85
2023/03/14 06:55:15;;;;;;;1.52;0.93;;;;;;;-143.04;100.00;61139.28;5017697;28;20061;-86
2023/03/14 06:57:43;;;;;;;1.15;0.98;;;;;;;-143.04;100.00;61139.28;5025551;28;20061;-86
2023/03/14 07:00:12;;;;;;;1.52;1.10;;;;;;;-143.04;100.00;61139.28;5023764;28;20064;-86
2023/03/14 07:05:55;;;;;;;1.77;1.10;;;;;;;;;;5045022;27;20758;-86
2023/03/14 07:10:20;;;;;;;2.35;1.20;;;;;;;9.89;100.00;96201.84;5067180;27;20692;-85
2023/03/14 07:12:47;;;;;;;4.32;1.38;;;;;;;9.91;100.00;96200.59;5079430;28;20040;-85
2023/03/14 07:15:13;;;;;;;3.33;2.45;;;;;;;9.95;100.00;96189.63;5066109;28;20067;-86
2023/03/14 07:17:39;;;;;;;2.95;1.50;;;;;;;10.01;100.00;96189.44;5085942;28;20056;-84
2023/03/14 07:20:07;;;;;;;3.65;1.30;;;;;;;10.06;100.00;96192.13;5087527;28;20043;-85
2023/03/14 07:22:34;;;;;;;4.40;2.95;;;;;;;10.14;100.00;96188.31;5094315;28;20054;-86
2023/03/14 07:25:00;;;;;;;4.70;2.90;;;;;;;10.13;100.00;96184.09;5083346;28;20056;-85
2023/03/14 07:27:26;;;;;;;4.30;3.20;;;;;;;10.20;100.00;96176.88;5093449;28;20066;-85
2023/03/14 07:29:52;;;;;;;2.70;1.25;;;;;;;10.20;100.00;96184.72;5090153;28;20056;-85
2023/03/14 07:32:19;;;;;;;4.40;1.33;;;;;;;10.25;100.00;96192.66;5098982;28;20067;-85
2023/03/14 07:34:45;;;;;;;4.57;2.88;;;;;;;10.29;100.00;96193.75;5081179;27;20033;-85
2023/03/14 07:37:11;;;;;;;6.80;3.25;;;;;;;10.26;100.00;96196.88;5058740;28;20060;-85
2023/03/14 07:39:37;;;;;;;3.17;1.60;;;;;;;10.31;100.00;96194.28;5071263;28;20064;-85
2023/03/14 07:42:04;;;;;;;8.55;4.10;;;;;;;10.41;100.00;96194.44;5071182;28;20060;-86
2023/03/14 07:44:30;;;;;;;5.32;2.60;;;;;;;10.37;100.00;96187.28;5079119;28;20035;-85
2023/03/14 07:46:56;;;;;;;4.00;1.90;;;;;;;10.49;100.00;96206.31;5067067;28;20106;-85
2023/03/14 07:49:22;;;;;;;5.22;1.60;;;;;;;10.59;100.00;96206.44;5072514;28;20626;-85
2023/03/14 07:51:49;;;;;;;2.33;1.52;;;;;;;10.65;100.00;96200.19;5064096;28;20065;-86
2023/03/14 07:54:16;;;;;;;2.85;1.40;;;;;;;10.87;100.00;96215.13;5085944;28;20037;-86
2023/03/14 07:56:42;;;;;;;4.32;2.60;;;;;;;10.98;100.00;96209.72;5069682;28;20060;-85
2023/03/14 07:59:09;;;;;;;2.17;1.30;;;;;;;10.96;100.00;96203.13;5062513;28;20119;-85
2023/03/14 08:01:35;;;;;;;2.10;1.10;;;;;;;10.93;100.00;96206.25;5059406;28;20572;-85
2023/03/14 08:04:01;;;;;;;2.63;1.10;;;;;;;10.95;100.00;96188.44;5064001;28;20072;-85
2023/03/14 08:06:27;;;;;;;2.80;1.10;;;;;;;11.02;100.00;96217.09;5068892;28;20438;-84
2023/03/14 08:08:54;;;;;;;1.08;0.90;;;;;;;11.06;100.00;96202.44;5064454;28;20075;-85
2023/03/14 08:11:20;;;;;;;4.18;1.15;;;;;;;11.28;100.00;96213.69;5069451;28;20056;-85
2023/03/14 08:13:49;;;;;;;1.67;1.15;;;;;;;11.29;100.00;96223.13;5063151;28;20067;-85
2023/03/14 08:16:17;;;;;;;0.80;0.80;;;;;;;11.20;100.00;96214.13;5067545;28;20816;-85
2023/03/14 08:18:44;;;;;;;3.15;1.00;;;;;;;11.41;100.00;96218.50;5067953;28;20036;-85
2023/03/14 08:21:13;;;;;;;1.95;0.90;;;;;;;11.36;100.00;96210.59;5056742;28;20044;-85
2023/03/14 08:23:39;;;;;;;2.03;1.00;;;;;;;11.35;100.00;96216.88;5053370;28;20074;-85
2023/03/14 08:26:06;;;;;;;2.22;1.02;;;;;;;11.39;100.00;96219.78;5053126;28;20072;-85
2023/03/14 08:28:33;;;;;;;1.45;1.00;;;;;;;11.32;100.00;96209.50;5059973;28;20064;-84
2023/03/14 08:31:00;;;;;;;1.13;0.80;;;;;;;11.47;100.00;96212.25;5042071;28;20088;-85
2023/03/14 08:33:29;;;;;;;1.55;0.82;;;;;;;11.52;100.00;96188.66;5048068;28;20553;-85
2023/03/14 08:36:00;;;;;;;1.00;0.90;;;;;;;11.70;100.00;96197.97;5048711;28;20060;-85
2023/03/14 08:38:26;;;;;;;2.58;0.80;;;;;;;11.82;100.00;96192.56;5048933;28;20057;-85
2023/03/14 08:40:58;;;;;;;1.35;0.90;;;;;;;11.88;100.00;96190.78;5049933;28;20071;-85
2023/03/14 08:43:26;;;;;;;1.65;0.80;;;;;;;12.04;100.00;96201.09;5050021;28;20056;-85
2023/03/14 08:45:52;;;;;;;2.63;1.00;;;;;;;12.04;99.99;96181.91;5046505;28;20057;-85
2023/03/14 08:48:19;;;;;;;0.90;0.70;;;;;;;12.09;99.34;96200.34;5062199;28;20052;-85
2023/03/14 08:50:46;;;;;;;2.60;0.90;;;;;;;12.12;99.75;96180.66;5045624;28;20060;-85
2023/03/14 08:53:12;;;;;;;1.50;0.80;;;;;;;11.96;98.07;96172.69;5050690;28;20083;-85
2023/03/14 08:55:38;;;;;;;2.40;1.00;;;;;;;12.03;99.35;96177.72;5053285;28;20056;-84
2023/03/14 08:58:04;;;;;;;1.05;0.80;;;;;;;12.24;98.63;96181.25;5047074;28;20060;-85
2023/03/14 09:00:31;;;;;;;1.30;0.88;;;;;;;12.29;95.99;96154.94;5045585;28;20071;-84
2023/03/14 09:02:57;;;;;;;1.38;0.90;;;;;;;12.49;95.57;96165.56;5044134;28;20056;-85
2023/03/14 09:05:23;;;;;;;2.63;1.00;;;;;;;12.54;96.42;96170.84;5041376;28;20941;-84
2023/03/14 09:07:49;;;;;;;1.42;1.02;;;;;;;12.62;94.99;96169.53;5043722;28;20033;-84
2023/03/14 09:10:16;;;;;;;1.52;0.80;;;;;;;12.64;94.82;96166.63;5047020;28;20098;-85
2023/03/14 09:12:42;;;;;;;1.30;0.88;;;;;;;12.76;94.72;96169.81;5046335;28;20127;-85
2023/03/14 09:15:09;;;;;;;1.08;0.88;;;;;;;12.64;92.40;96169.25;5043125;28;20319;-85
2023/03/14 09:17:35;;;;;;;1.55;0.90;;;;;;;12.58;92.27;96166.63;5049280;28;20069;-85
2023/03/14 09:20:06;;;;;;;1.23;0.90;;;;;;;12.44;92.30;96178.69;5046427;28;20492;-85
2023/03/14 09:22:33;;;;;;;4.47;0.90;;;;;;;12.39;95.22;96155.00;5065221;28;20069;-85
2023/03/14 09:24:59;;;;;;;2.70;0.98;;;;;;;12.46;93.76;96166.06;5045694;28;20064;-85
2023/03/14 09:27:25;;;;;;;0.90;0.65;;;;;;;12.30;91.63;96159.19;5045963;28;20065;-85
2023/03/14 09:29:52;;;;;;;4.28;1.00;;;;;;;12.45;93.08;96180.25;5041222;28;20465;-85
2023/03/14 09:32:18;;;;;;;3.53;0.60;;;;;;;12.43;92.47;96174.47;5043813;28;20064;-85
2023/03/14 09:34:44;;;;;;;2.10;0.80;;;;;;;12.31;91.35;96189.69;5043884;28;20356;-86
2023/03/14 09:37:10;;;;;;;1.80;0.70;;;;;;;12.28;91.72;96164.69;5046856;28;20069;-85
2023/03/14 09:39:37;;;;;;;2.60;0.70;;;;;;;12.28;91.12;96166.53;5045931;28;20025;-84
2023/03/14 09:42:10;;;;;;;1.65;0.82;;;;;;;12.26;88.27;96174.66;5042461;28;20536;-85
2023/03/14 09:44:51;;;;;;;0.95;0.50;;;;;;;12.16;89.04;96168.56;5044240;28;20078;-85
2023/03/14 09:47:19;;;;;;;0.50;0.50;;;;;;;12.03;84.16;96170.63;5047807;28;20068;-86
2023/03/14 09:49:45;;;;;;;0.82;0.47;;;;;;;11.97;84.77;96171.63;5047811;28;20114;-86
2023/03/14 09:52:35;;;;;;;0.52;0.50;;;;;;;11.78;85.64;96167.81;5048021;28;20033;-86
2023/03/14 09:55:15;;;;;;;0.70;0.50;;;;;;;11.85;85.00;96178.94;5045282;28;20087;-85
2023/03/14 09:57:44;;;;;;;1.95;1.30;;;;;;;11.77;86.03;96159.16;5042301;28;20424;-85
2023/03/14 10:00:24;;;;;;;2.17;0.63;;;;;;;11.85;87.01;96181.56;5044712;28;20154;-84
2023/03/14 10:03:13;;;;;;;0.52;0.50;;;;;;;11.66;83.84;96167.22;5044753;28;20033;-86
2023/03/14 10:05:41;;;;;;;1.42;0.50;;;;;;;11.89;85.34;96169.50;5045084;28;20449;-85
2023/03/14 10:08:13;;;;;;;2.35;0.70;;;;;;;11.84;85.19;96156.34;5050623;28;20060;-85
2023/03/14 10:10:40;;;;;;;1.70;0.60;;;;;;;11.80;86.49;96158.63;5044619;28;20084;-84
2023/03/14 10:13:17;;;;;;;2.88;0.70;;;;;;;11.75;84.85;96182.25;5045635;28;20045;-85
2023/03/14 10:15:52;;;;;;;0.88;0.50;;;;;;;11.76;88.12;96168.09;5048544;28;20064;-84
2023/03/14 10:18:19;;;;;;;0.60;0.60;;;;;;;11.75;85.75;96176.19;5048355;28;20500;-85
2023/03/14 10:20:49;;;;;;;1.45;0.45;;;;;;;11.75;86.15;96182.25;5046806;28;20068;-85
2023/03/14 10:23:16;;;;;;;;;;;;;;;11.85;85.66;96178.13;5042640;28;20041;-85
2023/03/14 10:26:00;;;;;;;1.10;0.50;;;;;;;11.91;87.03;96170.03;5039838;28;19912;-85
2023/03/14 10:28:30;;;;;;;1.05;0.50;;;;;;;11.84;85.57;96158.97;5047628;28;20095;-85
2023/03/14 10:30:58;;;;;;;1.80;0.80;;;;;;;12.06;85.78;96185.09;5044818;28;20060;-85
2023/03/14 10:33:30;;;;;;;2.40;0.73;;;;;;;12.08;83.62;96169.06;5045295;28;20060;-85
2023/03/14 10:36:20;;;;;;;1.38;0.63;;;;;;;12.26;81.84;96155.47;5046404;28;20663;-85
2023/03/14 10:38:47;;;;;;;1.45;0.80;;;;;;;12.62;82.34;96158.22;5045723;28;20061;-84
2023/03/14 10:41:23;;;;;;;0.73;0.70;;;;;;;12.80;83.59;96168.25;5046799;28;20064;-85
2023/03/14 10:43:54;;;;;;;3.28;0.70;;;;;;;12.79;81.39;96177.22;5043298;28;20079;-85
2023/03/14 10:46:23;;;;;;;;;;;;;;;12.82;79.10;96181.94;5045085;28;20061;-85
2023/03/14 10:48:51;;;;;;;2.75;0.80;;;;;;;12.76;79.62;96177.72;5046202;28;19956;-85
2023/03/14 10:51:17;;;;;;;2.00;0.60;;;;;;;12.87;80.36;96171.44;5044671;28;20069;-85
2023/03/14 10:53:48;;;;;;;3.33;0.60;;;;;;;13.06;81.54;96177.75;5042760;28;20057;-84
2023/03/14 10:56:18;;;;;;;0.73;0.65;;;;;;;13.21;81.30;96184.13;5042286;28;20122;-84
2023/03/14 10:58:48;;;;;;;0.88;0.63;;;;;;;13.12;79.39;96176.72;5042096;28;20072;-85
2023/03/14 11:01:50;;;;;;;1.10;0.70;;;;;;;13.28;79.01;96182.03;5046931;28;20056;-86
2023/03/14 11:04:38;;;;;;;1.33;0.55;;;;;;;13.09;78.10;96182.50;5045790;28;20087;-84
2023/03/14 11:07:43;;;;;;;0.90;0.70;;;;;;;12.98;78.59;96174.88;5047590;28;20122;-84
2023/03/14 11:10:37;;;;;;;1.45;0.70;;;;;;;13.07;80.66;96195.16;5039722;28;20076;-84
2023/03/14 11:13:16;;;;;;;1.05;0.40;;;;;;;12.96;78.20;96175.13;5045484;28;20078;-85
2023/03/14 11:16:01;;;;;;;1.17;0.63;;;;;;;12.80;78.70;96186.66;5043181;28;20464;-85
2023/03/14 11:19:17;;;;;;;0.82;0.60;;;;;;;13.05;80.86;96167.50;5048673;28;20056;-85
2023/03/14 11:22:37;;;;;;;0.55;0.55;;;;;;;13.19;79.78;96168.56;5039164;28;20400;-85
2023/03/14 11:25:22;;;;;;;0.73;0.38;;;;;;;13.01;78.89;96169.84;5016624;28;20041;-85
2023/03/14 11:28:32;;;;;;;0.40;0.40;;;;;;;12.85;78.56;96176.94;5037740;28;20079;-85
2023/03/14 11:31:23;;;;;;;0.57;0.50;;;;;;;13.00;79.75;96170.91;5034992;28;20657;-84
2023/03/14 11:34:15;;;;;;;0.70;0.60;;;;;;;12.98;79.13;96154.59;5040381;28;20052;-85
2023/03/14 11:36:55;;;;;;;0.75;0.40;;;;;;;12.83;79.33;96160.66;5041606;28;20033;-85
2023/03/14 11:39:29;;;;;;;1.00;0.70;;;;;;;12.84;80.21;96172.75;5042706;28;20041;-85
2023/03/14 11:41:59;;;;;;;0.50;0.50;;;;;;;12.64;78.56;96167.41;5041530;28;20068;-85